sensor_id;sensor_type;location;lat;lon;timestamp;P1;durP1;ratioP1;P2;durP2;ratioP2
72633;SDS011;60678;47.660;19.280;2022-10-19T00:00:24;2.28;;;1.42;;
72633;SDS011;60678;47.660;19.280;2022-10-19T00:02:51;2.30;;;1.52;;
72633;SDS011;60678;47.660;19.280;2022-10-19T00:05:18;2.43;;;1.70;;
72633;SDS011;60678;47.660;19.280;2022-10-19T00:07:45;2.12;;;1.30;;
72633;SDS011;60678;47.660;19.280;2022-10-19T00:10:13;4.82;;;2.75;;
72633;SDS011;60678;47.660;19.280;2022-10-19T00:12:41;2.28;;;1.52;;
72633;SDS011;60678;47.660;19.280;2022-10-19T00:15:08;4.43;;;2.47;;
72633;SDS011;60678;47.660;19.280;2022-10-19T00:17:35;1.90;;;1.20;;
72633;SDS011;60678;47.660;19.280;2022-10-19T00:20:02;2.00;;;1.20;;
72633;SDS011;60678;47.660;19.280;2022-10-19T00:22:30;7.47;;;2.67;;
72633;SDS011;60678;47.660;19.280;2022-10-19T00:24:56;2.05;;;1.30;;
72633;SDS011;60678;47.660;19.280;2022-10-19T00:27:26;3.22;;;1.50;;
72633;SDS011;60678;47.660;19.280;2022-10-19T00:29:53;1.90;;;1.10;;
72633;SDS011;60678;47.660;19.280;2022-10-19T00:32:20;2.00;;;1.25;;
72633;SDS011;60678;47.660;19.280;2022-10-19T00:34:46;1.80;;;1.00;;
72633;SDS011;60678;47.660;19.280;2022-10-19T00:37:13;2.78;;;1.75;;
72633;SDS011;60678;47.660;19.280;2022-10-19T00:39:40;2.20;;;1.33;;
72633;SDS011;60678;47.660;19.280;2022-10-19T00:42:09;10.50;;;1.80;;
72633;SDS011;60678;47.660;19.280;2022-10-19T00:44:57;2.45;;;1.62;;
72633;SDS011;60678;47.660;19.280;2022-10-19T00:47:26;2.20;;;1.33;;
72633;SDS011;60678;47.660;19.280;2022-10-19T00:49:53;2.17;;;1.35;;
72633;SDS011;60678;47.660;19.280;2022-10-19T00:52:21;2.10;;;1.37;;
72633;SDS011;60678;47.660;19.280;2022-10-19T00:54:49;3.30;;;2.60;;
72633;SDS011;60678;47.660;19.280;2022-10-19T00:57:16;2.12;;;1.37;;
72633;SDS011;60678;47.660;19.280;2022-10-19T00:59:43;2.10;;;1.23;;
72633;SDS011;60678;47.660;19.280;2022-10-19T01:02:12;3.85;;;2.17;;
72633;SDS011;60678;47.660;19.280;2022-10-19T01:04:41;2.15;;;1.30;;
72633;SDS011;60678;47.660;19.280;2022-10-19T01:07:11;4.67;;;3.30;;
72633;SDS011;60678;47.660;19.280;2022-10-19T01:09:38;8.27;;;3.55;;
72633;SDS011;60678;47.660;19.280;2022-10-19T01:12:06;4.85;;;2.85;;
72633;SDS011;60678;47.660;19.280;2022-10-19T01:14:39;2.10;;;1.20;;
72633;SDS011;60678;47.660;19.280;2022-10-19T01:17:15;4.62;;;2.65;;
72633;SDS011;60678;47.660;19.280;2022-10-19T01:19:59;3.20;;;2.43;;
72633;SDS011;60678;47.660;19.280;2022-10-19T01:22:44;2.87;;;2.28;;
72633;SDS011;60678;47.660;19.280;2022-10-19T01:25:21;3.25;;;2.37;;
72633;SDS011;60678;47.660;19.280;2022-10-19T01:28:00;3.72;;;3.10;;
72633;SDS011;60678;47.660;19.280;2022-10-19T01:30:33;2.22;;;1.40;;
72633;SDS011;60678;47.660;19.280;2022-10-19T01:33:15;2.60;;;1.97;;
72633;SDS011;60678;47.660;19.280;2022-10-19T01:35:50;2.50;;;1.67;;
72633;SDS011;60678;47.660;19.280;2022-10-19T01:38:23;3.15;;;2.45;;
72633;SDS011;60678;47.660;19.280;2022-10-19T01:40:55;2.00;;;1.20;;
72633;SDS011;60678;47.660;19.280;2022-10-19T01:43:25;2.22;;;1.50;;
72633;SDS011;60678;47.660;19.280;2022-10-19T01:46:01;1.97;;;1.20;;
72633;SDS011;60678;47.660;19.280;2022-10-19T01:48:33;3.15;;;1.45;;
72633;SDS011;60678;47.660;19.280;2022-10-19T01:51:02;1.73;;;1.02;;
72633;SDS011;60678;47.660;19.280;2022-10-19T01:53:33;2.65;;;1.62;;
72633;SDS011;60678;47.660;19.280;2022-10-19T01:56:02;3.40;;;2.17;;
72633;SDS011;60678;47.660;19.280;2022-10-19T01:58:30;2.00;;;1.13;;
72633;SDS011;60678;47.660;19.280;2022-10-19T02:01:01;2.08;;;1.30;;
72633;SDS011;60678;47.660;19.280;2022-10-19T02:03:30;1.90;;;1.10;;
72633;SDS011;60678;47.660;19.280;2022-10-19T02:05:57;1.77;;;1.00;;
72633;SDS011;60678;47.660;19.280;2022-10-19T02:08:25;2.45;;;1.37;;
72633;SDS011;60678;47.660;19.280;2022-10-19T02:10:54;2.40;;;1.60;;
72633;SDS011;60678;47.660;19.280;2022-10-19T02:13:22;2.12;;;1.33;;
72633;SDS011;60678;47.660;19.280;2022-10-19T02:15:50;8.02;;;3.30;;
72633;SDS011;60678;47.660;19.280;2022-10-19T02:18:20;2.20;;;1.40;;
72633;SDS011;60678;47.660;19.280;2022-10-19T02:20:49;2.70;;;1.60;;
72633;SDS011;60678;47.660;19.280;2022-10-19T02:23:19;2.60;;;1.73;;
72633;SDS011;60678;47.660;19.280;2022-10-19T02:25:47;2.05;;;1.25;;
72633;SDS011;60678;47.660;19.280;2022-10-19T02:28:14;2.75;;;1.65;;
72633;SDS011;60678;47.660;19.280;2022-10-19T02:30:41;2.05;;;1.30;;
72633;SDS011;60678;47.660;19.280;2022-10-19T02:33:08;3.08;;;1.75;;
72633;SDS011;60678;47.660;19.280;2022-10-19T02:35:37;1.83;;;1.07;;
72633;SDS011;60678;47.660;19.280;2022-10-19T02:38:05;2.10;;;1.30;;
72633;SDS011;60678;47.660;19.280;2022-10-19T02:40:37;3.10;;;1.50;;
72633;SDS011;60678;47.660;19.280;2022-10-19T02:43:06;1.70;;;0.90;;
72633;SDS011;60678;47.660;19.280;2022-10-19T02:45:36;1.80;;;1.00;;
72633;SDS011;60678;47.660;19.280;2022-10-19T02:48:07;2.10;;;1.37;;
72633;SDS011;60678;47.660;19.280;2022-10-19T02:50:38;2.17;;;1.33;;
72633;SDS011;60678;47.660;19.280;2022-10-19T02:53:08;2.12;;;1.52;;
72633;SDS011;60678;47.660;19.280;2022-10-19T02:55:35;1.75;;;1.00;;
72633;SDS011;60678;47.660;19.280;2022-10-19T02:58:02;2.05;;;1.30;;
72633;SDS011;60678;47.660;19.280;2022-10-19T03:00:29;1.80;;;1.10;;
72633;SDS011;60678;47.660;19.280;2022-10-19T03:02:56;1.87;;;1.10;;
72633;SDS011;60678;47.660;19.280;2022-10-19T03:05:22;1.90;;;1.12;;
72633;SDS011;60678;47.660;19.280;2022-10-19T03:07:51;1.75;;;1.00;;
72633;SDS011;60678;47.660;19.280;2022-10-19T03:10:17;2.25;;;1.58;;
72633;SDS011;60678;47.660;19.280;2022-10-19T03:12:44;2.00;;;1.23;;
72633;SDS011;60678;47.660;19.280;2022-10-19T03:15:13;2.15;;;1.33;;
72633;SDS011;60678;47.660;19.280;2022-10-19T03:17:40;2.92;;;1.42;;
72633;SDS011;60678;47.660;19.280;2022-10-19T03:20:07;2.25;;;1.27;;
72633;SDS011;60678;47.660;19.280;2022-10-19T03:22:36;1.85;;;1.10;;
72633;SDS011;60678;47.660;19.280;2022-10-19T03:25:04;2.40;;;1.30;;
72633;SDS011;60678;47.660;19.280;2022-10-19T03:27:32;1.80;;;1.12;;
72633;SDS011;60678;47.660;19.280;2022-10-19T03:29:59;1.80;;;1.00;;
72633;SDS011;60678;47.660;19.280;2022-10-19T03:32:25;1.62;;;0.90;;
72633;SDS011;60678;47.660;19.280;2022-10-19T03:34:52;1.80;;;1.00;;
72633;SDS011;60678;47.660;19.280;2022-10-19T03:37:19;1.90;;;1.10;;
72633;SDS011;60678;47.660;19.280;2022-10-19T03:39:46;1.77;;;1.00;;
72633;SDS011;60678;47.660;19.280;2022-10-19T03:42:14;2.95;;;1.62;;
72633;SDS011;60678;47.660;19.280;2022-10-19T03:44:41;2.08;;;1.25;;
72633;SDS011;60678;47.660;19.280;2022-10-19T03:47:08;2.03;;;1.20;;
72633;SDS011;60678;47.660;19.280;2022-10-19T03:49:34;2.70;;;1.53;;
72633;SDS011;60678;47.660;19.280;2022-10-19T03:52:01;1.90;;;1.10;;
72633;SDS011;60678;47.660;19.280;2022-10-19T03:54:28;1.83;;;1.08;;
72633;SDS011;60678;47.660;19.280;2022-10-19T03:56:55;1.80;;;1.05;;
72633;SDS011;60678;47.660;19.280;2022-10-19T03:59:23;1.83;;;1.02;;
72633;SDS011;60678;47.660;19.280;2022-10-19T04:01:50;1.97;;;1.20;;
72633;SDS011;60678;47.660;19.280;2022-10-19T04:04:18;2.08;;;1.30;;
72633;SDS011;60678;47.660;19.280;2022-10-19T04:06:46;1.90;;;1.10;;
72633;SDS011;60678;47.660;19.280;2022-10-19T04:09:15;1.73;;;1.00;;
72633;SDS011;60678;47.660;19.280;2022-10-19T04:11:43;1.90;;;1.10;;
72633;SDS011;60678;47.660;19.280;2022-10-19T04:14:10;1.90;;;1.20;;
72633;SDS011;60678;47.660;19.280;2022-10-19T04:16:39;1.73;;;0.95;;
72633;SDS011;60678;47.660;19.280;2022-10-19T04:19:06;2.00;;;1.30;;
72633;SDS011;60678;47.660;19.280;2022-10-19T04:21:34;2.00;;;1.20;;
72633;SDS011;60678;47.660;19.280;2022-10-19T04:24:05;2.00;;;1.20;;
72633;SDS011;60678;47.660;19.280;2022-10-19T04:26:33;2.40;;;1.63;;
72633;SDS011;60678;47.660;19.280;2022-10-19T04:29:04;1.92;;;1.10;;
72633;SDS011;60678;47.660;19.280;2022-10-19T04:31:31;1.67;;;0.95;;
72633;SDS011;60678;47.660;19.280;2022-10-19T04:34:00;1.80;;;1.00;;
72633;SDS011;60678;47.660;19.280;2022-10-19T04:36:26;2.53;;;1.65;;
72633;SDS011;60678;47.660;19.280;2022-10-19T04:38:53;1.80;;;1.07;;
72633;SDS011;60678;47.660;19.280;2022-10-19T04:41:20;2.40;;;1.67;;
72633;SDS011;60678;47.660;19.280;2022-10-19T04:43:47;4.18;;;1.87;;
72633;SDS011;60678;47.660;19.280;2022-10-19T04:46:20;2.70;;;1.90;;
72633;SDS011;60678;47.660;19.280;2022-10-19T04:48:47;1.95;;;1.15;;
72633;SDS011;60678;47.660;19.280;2022-10-19T04:51:16;2.63;;;1.50;;
72633;SDS011;60678;47.660;19.280;2022-10-19T04:53:44;2.62;;;1.77;;
72633;SDS011;60678;47.660;19.280;2022-10-19T04:56:13;2.47;;;1.52;;
72633;SDS011;60678;47.660;19.280;2022-10-19T04:58:41;2.90;;;1.77;;
72633;SDS011;60678;47.660;19.280;2022-10-19T05:01:08;2.00;;;1.15;;
72633;SDS011;60678;47.660;19.280;2022-10-19T05:03:36;3.77;;;2.23;;
72633;SDS011;60678;47.660;19.280;2022-10-19T05:06:03;2.10;;;1.35;;
72633;SDS011;60678;47.660;19.280;2022-10-19T05:08:32;2.12;;;1.25;;
72633;SDS011;60678;47.660;19.280;2022-10-19T05:10:59;1.90;;;1.12;;
72633;SDS011;60678;47.660;19.280;2022-10-19T05:13:27;4.62;;;3.58;;
72633;SDS011;60678;47.660;19.280;2022-10-19T05:15:54;2.37;;;1.57;;
72633;SDS011;60678;47.660;19.280;2022-10-19T05:18:22;2.78;;;1.98;;
72633;SDS011;60678;47.660;19.280;2022-10-19T05:20:49;1.92;;;1.15;;
72633;SDS011;60678;47.660;19.280;2022-10-19T05:23:16;1.98;;;1.15;;
72633;SDS011;60678;47.660;19.280;2022-10-19T05:25:46;2.22;;;1.33;;
72633;SDS011;60678;47.660;19.280;2022-10-19T05:28:21;2.23;;;1.43;;
72633;SDS011;60678;47.660;19.280;2022-10-19T05:30:52;2.75;;;1.98;;
72633;SDS011;60678;47.660;19.280;2022-10-19T05:33:19;2.37;;;1.58;;
72633;SDS011;60678;47.660;19.280;2022-10-19T05:35:51;2.10;;;1.30;;
72633;SDS011;60678;47.660;19.280;2022-10-19T05:38:19;1.98;;;1.17;;
72633;SDS011;60678;47.660;19.280;2022-10-19T05:40:47;1.90;;;1.10;;
72633;SDS011;60678;47.660;19.280;2022-10-19T05:43:18;2.10;;;1.30;;
72633;SDS011;60678;47.660;19.280;2022-10-19T05:45:46;1.90;;;1.10;;
72633;SDS011;60678;47.660;19.280;2022-10-19T05:48:14;2.22;;;1.42;;
72633;SDS011;60678;47.660;19.280;2022-10-19T05:50:50;2.40;;;1.55;;
72633;SDS011;60678;47.660;19.280;2022-10-19T05:53:21;2.10;;;1.30;;
72633;SDS011;60678;47.660;19.280;2022-10-19T05:55:51;2.47;;;1.75;;
72633;SDS011;60678;47.660;19.280;2022-10-19T05:58:18;7.28;;;4.90;;
72633;SDS011;60678;47.660;19.280;2022-10-19T06:03:20;1.77;;;1.08;;
72633;SDS011;60678;47.660;19.280;2022-10-19T06:05:49;2.37;;;1.57;;
72633;SDS011;60678;47.660;19.280;2022-10-19T06:08:19;6.07;;;2.25;;
72633;SDS011;60678;47.660;19.280;2022-10-19T06:10:49;3.20;;;2.20;;
72633;SDS011;60678;47.660;19.280;2022-10-19T06:13:18;2.10;;;1.25;;
72633;SDS011;60678;47.660;19.280;2022-10-19T06:15:48;2.45;;;1.60;;
72633;SDS011;60678;47.660;19.280;2022-10-19T06:18:15;1.90;;;1.10;;
72633;SDS011;60678;47.660;19.280;2022-10-19T06:20:42;2.08;;;1.27;;
72633;SDS011;60678;47.660;19.280;2022-10-19T06:23:09;2.10;;;1.20;;
72633;SDS011;60678;47.660;19.280;2022-10-19T06:25:36;2.22;;;1.33;;
72633;SDS011;60678;47.660;19.280;2022-10-19T06:28:04;2.35;;;1.65;;
72633;SDS011;60678;47.660;19.280;2022-10-19T06:30:31;2.37;;;1.60;;
72633;SDS011;60678;47.660;19.280;2022-10-19T06:32:58;1.90;;;1.10;;
72633;SDS011;60678;47.660;19.280;2022-10-19T06:35:25;2.20;;;1.33;;
72633;SDS011;60678;47.660;19.280;2022-10-19T06:37:51;1.90;;;1.10;;
72633;SDS011;60678;47.660;19.280;2022-10-19T06:40:19;2.75;;;2.08;;
72633;SDS011;60678;47.660;19.280;2022-10-19T06:42:46;2.60;;;1.67;;
72633;SDS011;60678;47.660;19.280;2022-10-19T06:45:14;2.70;;;2.10;;
72633;SDS011;60678;47.660;19.280;2022-10-19T06:47:41;1.80;;;1.00;;
72633;SDS011;60678;47.660;19.280;2022-10-19T06:50:08;1.55;;;0.85;;
72633;SDS011;60678;47.660;19.280;2022-10-19T06:52:35;1.55;;;0.85;;
72633;SDS011;60678;47.660;19.280;2022-10-19T06:55:05;2.00;;;1.30;;
72633;SDS011;60678;47.660;19.280;2022-10-19T06:57:32;1.92;;;1.20;;
72633;SDS011;60678;47.660;19.280;2022-10-19T06:59:59;1.85;;;1.17;;
72633;SDS011;60678;47.660;19.280;2022-10-19T07:02:27;2.08;;;1.25;;
72633;SDS011;60678;47.660;19.280;2022-10-19T07:04:54;2.08;;;1.35;;
72633;SDS011;60678;47.660;19.280;2022-10-19T07:07:21;2.60;;;1.63;;
72633;SDS011;60678;47.660;19.280;2022-10-19T07:09:49;2.58;;;1.52;;
72633;SDS011;60678;47.660;19.280;2022-10-19T07:12:16;1.55;;;0.85;;
72633;SDS011;60678;47.660;19.280;2022-10-19T07:14:42;2.55;;;1.50;;
72633;SDS011;60678;47.660;19.280;2022-10-19T07:17:10;2.28;;;1.52;;
72633;SDS011;60678;47.660;19.280;2022-10-19T07:19:38;1.80;;;1.10;;
72633;SDS011;60678;47.660;19.280;2022-10-19T07:22:05;3.28;;;1.98;;
72633;SDS011;60678;47.660;19.280;2022-10-19T07:24:32;2.00;;;1.30;;
72633;SDS011;60678;47.660;19.280;2022-10-19T07:26:59;1.87;;;1.08;;
72633;SDS011;60678;47.660;19.280;2022-10-19T07:29:26;1.40;;;0.70;;
72633;SDS011;60678;47.660;19.280;2022-10-19T07:31:53;2.17;;;1.13;;
72633;SDS011;60678;47.660;19.280;2022-10-19T07:34:20;29.35;;;1.50;;
72633;SDS011;60678;47.660;19.280;2022-10-19T07:36:49;1.70;;;0.90;;
72633;SDS011;60678;47.660;19.280;2022-10-19T07:39:16;2.05;;;1.05;;
72633;SDS011;60678;47.660;19.280;2022-10-19T07:41:43;1.45;;;0.80;;
72633;SDS011;60678;47.660;19.280;2022-10-19T07:44:10;1.93;;;1.10;;
72633;SDS011;60678;47.660;19.280;2022-10-19T07:46:38;1.58;;;0.82;;
72633;SDS011;60678;47.660;19.280;2022-10-19T07:49:05;2.03;;;1.20;;
72633;SDS011;60678;47.660;19.280;2022-10-19T07:51:35;1.30;;;0.70;;
72633;SDS011;60678;47.660;19.280;2022-10-19T07:54:03;1.62;;;0.90;;
72633;SDS011;60678;47.660;19.280;2022-10-19T07:56:31;1.77;;;0.83;;
72633;SDS011;60678;47.660;19.280;2022-10-19T07:58:59;1.55;;;0.80;;
72633;SDS011;60678;47.660;19.280;2022-10-19T08:01:27;1.35;;;0.70;;
72633;SDS011;60678;47.660;19.280;2022-10-19T08:03:57;1.40;;;0.73;;
72633;SDS011;60678;47.660;19.280;2022-10-19T08:06:25;1.95;;;1.08;;
72633;SDS011;60678;47.660;19.280;2022-10-19T08:08:53;1.30;;;0.67;;
72633;SDS011;60678;47.660;19.280;2022-10-19T08:11:22;1.50;;;0.80;;
72633;SDS011;60678;47.660;19.280;2022-10-19T08:13:50;2.03;;;1.02;;
72633;SDS011;60678;47.660;19.280;2022-10-19T08:16:19;1.75;;;1.12;;
72633;SDS011;60678;47.660;19.280;2022-10-19T08:18:49;1.30;;;0.60;;
72633;SDS011;60678;47.660;19.280;2022-10-19T08:21:16;1.40;;;0.70;;
72633;SDS011;60678;47.660;19.280;2022-10-19T08:23:43;2.05;;;1.15;;
72633;SDS011;60678;47.660;19.280;2022-10-19T08:26:10;1.40;;;0.70;;
72633;SDS011;60678;47.660;19.280;2022-10-19T08:28:38;1.30;;;0.60;;
72633;SDS011;60678;47.660;19.280;2022-10-19T08:31:10;1.45;;;0.75;;
72633;SDS011;60678;47.660;19.280;2022-10-19T08:33:39;1.20;;;0.60;;
72633;SDS011;60678;47.660;19.280;2022-10-19T08:36:06;1.58;;;0.93;;
72633;SDS011;60678;47.660;19.280;2022-10-19T08:38:34;1.20;;;0.60;;
72633;SDS011;60678;47.660;19.280;2022-10-19T08:41:07;1.48;;;0.82;;
72633;SDS011;60678;47.660;19.280;2022-10-19T08:43:55;1.27;;;0.62;;
72633;SDS011;60678;47.660;19.280;2022-10-19T08:46:27;1.40;;;0.70;;
72633;SDS011;60678;47.660;19.280;2022-10-19T08:49:00;1.10;;;0.50;;
72633;SDS011;60678;47.660;19.280;2022-10-19T08:51:28;1.30;;;0.65;;
72633;SDS011;60678;47.660;19.280;2022-10-19T08:54:04;1.10;;;0.50;;
72633;SDS011;60678;47.660;19.280;2022-10-19T08:56:38;1.10;;;0.50;;
72633;SDS011;60678;47.660;19.280;2022-10-19T08:59:11;3.65;;;0.88;;
72633;SDS011;60678;47.660;19.280;2022-10-19T09:01:42;1.20;;;0.50;;
72633;SDS011;60678;47.660;19.280;2022-10-19T09:04:14;1.50;;;0.80;;
72633;SDS011;60678;47.660;19.280;2022-10-19T09:06:48;1.10;;;0.50;;
72633;SDS011;60678;47.660;19.280;2022-10-19T09:09:23;1.42;;;0.80;;
72633;SDS011;60678;47.660;19.280;2022-10-19T09:11:51;1.90;;;0.68;;
72633;SDS011;60678;47.660;19.280;2022-10-19T09:14:24;1.00;;;0.50;;
72633;SDS011;60678;47.660;19.280;2022-10-19T09:16:55;2.03;;;0.73;;
72633;SDS011;60678;47.660;19.280;2022-10-19T09:19:26;1.37;;;0.70;;
72633;SDS011;60678;47.660;19.280;2022-10-19T09:21:56;1.20;;;0.50;;
72633;SDS011;60678;47.660;19.280;2022-10-19T09:24:27;1.60;;;0.82;;
72633;SDS011;60678;47.660;19.280;2022-10-19T09:26:56;1.33;;;0.70;;
72633;SDS011;60678;47.660;19.280;2022-10-19T09:29:27;1.67;;;1.00;;
72633;SDS011;60678;47.660;19.280;2022-10-19T09:31:58;1.25;;;0.60;;
72633;SDS011;60678;47.660;19.280;2022-10-19T09:34:28;1.00;;;0.47;;
72633;SDS011;60678;47.660;19.280;2022-10-19T09:36:59;1.20;;;0.60;;
72633;SDS011;60678;47.660;19.280;2022-10-19T09:39:28;1.27;;;0.65;;
72633;SDS011;60678;47.660;19.280;2022-10-19T09:41:57;6.55;;;1.25;;
72633;SDS011;60678;47.660;19.280;2022-10-19T09:44:27;1.33;;;0.68;;
72633;SDS011;60678;47.660;19.280;2022-10-19T09:46:56;1.20;;;0.60;;
72633;SDS011;60678;47.660;19.280;2022-10-19T09:49:37;1.40;;;0.70;;
72633;SDS011;60678;47.660;19.280;2022-10-19T09:52:23;0.90;;;0.40;;
72633;SDS011;60678;47.660;19.280;2022-10-19T09:54:58;1.33;;;0.60;;
72633;SDS011;60678;47.660;19.280;2022-10-19T09:57:28;1.17;;;0.52;;
72633;SDS011;60678;47.660;19.280;2022-10-19T09:59:57;1.10;;;0.50;;
72633;SDS011;60678;47.660;19.280;2022-10-19T10:02:28;1.87;;;0.80;;
72633;SDS011;60678;47.660;19.280;2022-10-19T10:04:57;1.30;;;0.68;;
72633;SDS011;60678;47.660;19.280;2022-10-19T10:07:32;1.33;;;0.65;;
72633;SDS011;60678;47.660;19.280;2022-10-19T10:10:01;3.47;;;0.98;;
72633;SDS011;60678;47.660;19.280;2022-10-19T10:12:34;1.10;;;0.50;;
72633;SDS011;60678;47.660;19.280;2022-10-19T10:15:04;1.05;;;0.47;;
72633;SDS011;60678;47.660;19.280;2022-10-19T10:17:33;1.30;;;0.65;;
72633;SDS011;60678;47.660;19.280;2022-10-19T10:22:54;1.30;;;0.60;;
72633;SDS011;60678;47.660;19.280;2022-10-19T10:25:24;1.33;;;0.70;;
72633;SDS011;60678;47.660;19.280;2022-10-19T10:27:57;1.10;;;0.50;;
72633;SDS011;60678;47.660;19.280;2022-10-19T10:30:31;1.17;;;0.55;;
72633;SDS011;60678;47.660;19.280;2022-10-19T10:33:02;1.10;;;0.50;;
72633;SDS011;60678;47.660;19.280;2022-10-19T10:35:32;1.48;;;0.70;;
72633;SDS011;60678;47.660;19.280;2022-10-19T10:38:08;1.37;;;0.70;;
72633;SDS011;60678;47.660;19.280;2022-10-19T10:40:40;2.00;;;0.88;;
72633;SDS011;60678;47.660;19.280;2022-10-19T10:43:16;1.00;;;0.40;;
72633;SDS011;60678;47.660;19.280;2022-10-19T10:45:50;1.00;;;0.40;;
72633;SDS011;60678;47.660;19.280;2022-10-19T10:48:22;1.10;;;0.50;;
72633;SDS011;60678;47.660;19.280;2022-10-19T10:50:53;1.20;;;0.50;;
72633;SDS011;60678;47.660;19.280;2022-10-19T10:53:34;1.02;;;0.50;;
72633;SDS011;60678;47.660;19.280;2022-10-19T10:56:02;2.33;;;0.80;;
72633;SDS011;60678;47.660;19.280;2022-10-19T10:58:38;2.95;;;0.60;;
72633;SDS011;60678;47.660;19.280;2022-10-19T11:01:15;1.27;;;0.55;;
72633;SDS011;60678;47.660;19.280;2022-10-19T11:03:45;1.00;;;0.40;;
72633;SDS011;60678;47.660;19.280;2022-10-19T11:06:15;1.00;;;0.40;;
72633;SDS011;60678;47.660;19.280;2022-10-19T11:08:45;1.07;;;0.47;;
72633;SDS011;60678;47.660;19.280;2022-10-19T11:11:16;1.02;;;0.50;;
72633;SDS011;60678;47.660;19.280;2022-10-19T11:13:46;1.00;;;0.40;;
72633;SDS011;60678;47.660;19.280;2022-10-19T11:16:18;1.00;;;0.45;;
72633;SDS011;60678;47.660;19.280;2022-10-19T11:18:49;1.00;;;0.40;;
72633;SDS011;60678;47.660;19.280;2022-10-19T11:21:19;1.10;;;0.50;;
72633;SDS011;60678;47.660;19.280;2022-10-19T11:23:52;1.00;;;0.47;;
72633;SDS011;60678;47.660;19.280;2022-10-19T11:26:31;0.90;;;0.40;;
72633;SDS011;60678;47.660;19.280;2022-10-19T11:29:13;0.98;;;0.45;;
72633;SDS011;60678;47.660;19.280;2022-10-19T11:31:52;0.98;;;0.47;;
72633;SDS011;60678;47.660;19.280;2022-10-19T11:34:27;0.95;;;0.45;;
72633;SDS011;60678;47.660;19.280;2022-10-19T11:37:01;0.90;;;0.40;;
72633;SDS011;60678;47.660;19.280;2022-10-19T11:39:39;3.08;;;1.60;;
72633;SDS011;60678;47.660;19.280;2022-10-19T11:42:12;0.90;;;0.40;;
72633;SDS011;60678;47.660;19.280;2022-10-19T11:44:49;1.40;;;0.75;;
72633;SDS011;60678;47.660;19.280;2022-10-19T11:47:28;1.00;;;0.40;;
72633;SDS011;60678;47.660;19.280;2022-10-19T11:50:13;1.12;;;0.55;;
72633;SDS011;60678;47.660;19.280;2022-10-19T11:52:55;1.20;;;0.50;;
72633;SDS011;60678;47.660;19.280;2022-10-19T11:55:32;0.98;;;0.40;;
72633;SDS011;60678;47.660;19.280;2022-10-19T11:58:05;1.00;;;0.40;;
72633;SDS011;60678;47.660;19.280;2022-10-19T12:00:39;1.00;;;0.43;;
72633;SDS011;60678;47.660;19.280;2022-10-19T12:03:17;1.00;;;0.40;;
72633;SDS011;60678;47.660;19.280;2022-10-19T12:06:00;1.00;;;0.50;;
72633;SDS011;60678;47.660;19.280;2022-10-19T12:08:35;1.50;;;0.65;;
72633;SDS011;60678;47.660;19.280;2022-10-19T12:11:11;0.95;;;0.40;;
72633;SDS011;60678;47.660;19.280;2022-10-19T12:13:46;0.90;;;0.40;;
72633;SDS011;60678;47.660;19.280;2022-10-19T12:16:16;1.00;;;0.40;;
72633;SDS011;60678;47.660;19.280;2022-10-19T12:18:46;1.00;;;0.50;;
72633;SDS011;60678;47.660;19.280;2022-10-19T12:21:17;0.95;;;0.40;;
72633;SDS011;60678;47.660;19.280;2022-10-19T12:23:46;1.42;;;0.80;;
72633;SDS011;60678;47.660;19.280;2022-10-19T12:26:14;0.98;;;0.40;;
72633;SDS011;60678;47.660;19.280;2022-10-19T12:28:45;1.10;;;0.50;;
72633;SDS011;60678;47.660;19.280;2022-10-19T12:31:13;1.02;;;0.50;;
72633;SDS011;60678;47.660;19.280;2022-10-19T12:33:44;1.00;;;0.50;;
72633;SDS011;60678;47.660;19.280;2022-10-19T12:36:21;1.65;;;0.80;;
72633;SDS011;60678;47.660;19.280;2022-10-19T12:38:55;1.05;;;0.50;;
72633;SDS011;60678;47.660;19.280;2022-10-19T12:41:28;0.95;;;0.40;;
72633;SDS011;60678;47.660;19.280;2022-10-19T12:44:08;1.15;;;0.55;;
72633;SDS011;60678;47.660;19.280;2022-10-19T12:46:40;0.90;;;0.40;;
72633;SDS011;60678;47.660;19.280;2022-10-19T12:52:03;2.00;;;0.88;;
72633;SDS011;60678;47.660;19.280;2022-10-19T12:54:33;1.10;;;0.50;;
72633;SDS011;60678;47.660;19.280;2022-10-19T12:57:02;0.90;;;0.40;;
72633;SDS011;60678;47.660;19.280;2022-10-19T12:59:30;0.90;;;0.40;;
72633;SDS011;60678;47.660;19.280;2022-10-19T13:01:59;0.93;;;0.40;;
72633;SDS011;60678;47.660;19.280;2022-10-19T13:04:27;1.00;;;0.47;;
72633;SDS011;60678;47.660;19.280;2022-10-19T13:07:00;0.98;;;0.40;;
72633;SDS011;60678;47.660;19.280;2022-10-19T13:09:29;1.00;;;0.40;;
72633;SDS011;60678;47.660;19.280;2022-10-19T13:14:54;1.00;;;0.50;;
72633;SDS011;60678;47.660;19.280;2022-10-19T13:17:37;1.00;;;0.40;;
72633;SDS011;60678;47.660;19.280;2022-10-19T13:28:59;1.02;;;0.50;;
72633;SDS011;60678;47.660;19.280;2022-10-19T13:31:34;1.52;;;0.65;;
72633;SDS011;60678;47.660;19.280;2022-10-19T13:34:01;0.90;;;0.40;;
72633;SDS011;60678;47.660;19.280;2022-10-19T13:36:39;1.17;;;0.57;;
72633;SDS011;60678;47.660;19.280;2022-10-19T13:39:38;1.20;;;0.60;;
72633;SDS011;60678;47.660;19.280;2022-10-19T13:42:11;1.00;;;0.40;;
72633;SDS011;60678;47.660;19.280;2022-10-19T13:44:53;1.00;;;0.50;;
72633;SDS011;60678;47.660;19.280;2022-10-19T13:53:04;1.23;;;0.62;;
72633;SDS011;60678;47.660;19.280;2022-10-19T13:59:11;1.02;;;0.50;;
72633;SDS011;60678;47.660;19.280;2022-10-19T14:01:51;0.90;;;0.40;;
72633;SDS011;60678;47.660;19.280;2022-10-19T14:04:29;1.17;;;0.50;;
72633;SDS011;60678;47.660;19.280;2022-10-19T14:07:04;1.10;;;0.50;;
72633;SDS011;60678;47.660;19.280;2022-10-19T14:09:41;1.37;;;0.80;;
72633;SDS011;60678;47.660;19.280;2022-10-19T14:12:16;1.00;;;0.47;;
72633;SDS011;60678;47.660;19.280;2022-10-19T14:14:47;0.90;;;0.40;;
72633;SDS011;60678;47.660;19.280;2022-10-19T14:17:18;1.20;;;0.60;;
72633;SDS011;60678;47.660;19.280;2022-10-19T14:19:49;1.02;;;0.43;;
72633;SDS011;60678;47.660;19.280;2022-10-19T14:22:25;0.90;;;0.40;;
72633;SDS011;60678;47.660;19.280;2022-10-19T14:25:04;1.10;;;0.50;;
72633;SDS011;60678;47.660;19.280;2022-10-19T14:27:33;0.95;;;0.40;;
72633;SDS011;60678;47.660;19.280;2022-10-19T14:30:00;1.00;;;0.50;;
72633;SDS011;60678;47.660;19.280;2022-10-19T14:32:27;1.20;;;0.52;;
72633;SDS011;60678;47.660;19.280;2022-10-19T14:34:56;1.17;;;0.57;;
72633;SDS011;60678;47.660;19.280;2022-10-19T14:37:26;1.40;;;0.70;;
72633;SDS011;60678;47.660;19.280;2022-10-19T14:39:56;0.90;;;0.40;;
72633;SDS011;60678;47.660;19.280;2022-10-19T14:42:35;1.12;;;0.52;;
72633;SDS011;60678;47.660;19.280;2022-10-19T14:45:03;1.10;;;0.50;;
72633;SDS011;60678;47.660;19.280;2022-10-19T14:47:35;1.10;;;0.50;;
72633;SDS011;60678;47.660;19.280;2022-10-19T14:50:02;1.47;;;0.70;;
72633;SDS011;60678;47.660;19.280;2022-10-19T14:52:30;1.20;;;0.60;;
72633;SDS011;60678;47.660;19.280;2022-10-19T14:54:59;1.35;;;0.68;;
72633;SDS011;60678;47.660;19.280;2022-10-19T14:57:32;1.10;;;0.50;;
72633;SDS011;60678;47.660;19.280;2022-10-19T15:00:02;0.98;;;0.40;;
72633;SDS011;60678;47.660;19.280;2022-10-19T15:02:35;0.93;;;0.40;;
72633;SDS011;60678;47.660;19.280;2022-10-19T15:05:04;1.10;;;0.50;;
72633;SDS011;60678;47.660;19.280;2022-10-19T15:07:33;1.52;;;0.60;;
72633;SDS011;60678;47.660;19.280;2022-10-19T15:10:03;0.93;;;0.40;;
72633;SDS011;60678;47.660;19.280;2022-10-19T15:12:33;1.08;;;0.50;;
72633;SDS011;60678;47.660;19.280;2022-10-19T15:15:05;1.20;;;0.60;;
72633;SDS011;60678;47.660;19.280;2022-10-19T15:17:36;1.10;;;0.45;;
72633;SDS011;60678;47.660;19.280;2022-10-19T15:20:22;1.00;;;0.40;;